sensor_id;sensor_type;location;lat;lon;timestamp;P1;durP1;ratioP1;P2;durP2;ratioP2
23179;SDS011;11758;45.756;11.432;2022-12-18T00:01:00;6.60;;;5.47;;
23179;SDS011;11758;45.756;11.432;2022-12-18T00:03:31;7.30;;;6.03;;
23179;SDS011;11758;45.756;11.432;2022-12-18T00:05:57;12.70;;;6.53;;
23179;SDS011;11758;45.756;11.432;2022-12-18T00:08:23;9.83;;;6.47;;
23179;SDS011;11758;45.756;11.432;2022-12-18T00:10:49;6.13;;;5.50;;
23179;SDS011;11758;45.756;11.432;2022-12-18T00:13:15;7.13;;;5.32;;
23179;SDS011;11758;45.756;11.432;2022-12-18T00:15:41;6.43;;;5.40;;
23179;SDS011;11758;45.756;11.432;2022-12-18T00:18:07;8.53;;;5.80;;
23179;SDS011;11758;45.756;11.432;2022-12-18T00:20:37;6.67;;;5.53;;
23179;SDS011;11758;45.756;11.432;2022-12-18T00:23:04;5.77;;;5.27;;
23179;SDS011;11758;45.756;11.432;2022-12-18T00:25:32;5.80;;;5.10;;
23179;SDS011;11758;45.756;11.432;2022-12-18T00:27:58;5.30;;;4.60;;
23179;SDS011;11758;45.756;11.432;2022-12-18T00:30:27;5.50;;;5.00;;
23179;SDS011;11758;45.756;11.432;2022-12-18T00:32:54;6.27;;;5.33;;
23179;SDS011;11758;45.756;11.432;2022-12-18T00:35:20;9.47;;;5.60;;
23179;SDS011;11758;45.756;11.432;2022-12-18T00:37:46;8.33;;;5.93;;
23179;SDS011;11758;45.756;11.432;2022-12-18T00:40:12;7.53;;;5.87;;
23179;SDS011;11758;45.756;11.432;2022-12-18T00:42:38;10.17;;;6.17;;
23179;SDS011;11758;45.756;11.432;2022-12-18T00:45:20;8.93;;;5.90;;
23179;SDS011;11758;45.756;11.432;2022-12-18T00:47:47;16.13;;;8.33;;
23179;SDS011;11758;45.756;11.432;2022-12-18T00:50:13;9.83;;;7.00;;
23179;SDS011;11758;45.756;11.432;2022-12-18T00:52:39;10.63;;;7.37;;
23179;SDS011;11758;45.756;11.432;2022-12-18T00:55:05;6.37;;;5.63;;
23179;SDS011;11758;45.756;11.432;2022-12-18T00:57:32;9.43;;;5.83;;
23179;SDS011;11758;45.756;11.432;2022-12-18T00:59:58;6.47;;;5.37;;
23179;SDS011;11758;45.756;11.432;2022-12-18T01:02:24;7.67;;;5.30;;
23179;SDS011;11758;45.756;11.432;2022-12-18T01:04:50;5.20;;;4.47;;
23179;SDS011;11758;45.756;11.432;2022-12-18T01:07:16;5.97;;;4.80;;
23179;SDS011;11758;45.756;11.432;2022-12-18T01:09:42;4.97;;;4.57;;
23179;SDS011;11758;45.756;11.432;2022-12-18T01:12:09;5.27;;;4.67;;
23179;SDS011;11758;45.756;11.432;2022-12-18T01:14:36;4.83;;;4.40;;
23179;SDS011;11758;45.756;11.432;2022-12-18T01:17:03;4.30;;;4.00;;
23179;SDS011;11758;45.756;11.432;2022-12-18T01:19:29;5.23;;;4.70;;
23179;SDS011;11758;45.756;11.432;2022-12-18T01:21:55;4.50;;;4.10;;
23179;SDS011;11758;45.756;11.432;2022-12-18T01:24:22;5.00;;;4.57;;
23179;SDS011;11758;45.756;11.432;2022-12-18T01:26:48;5.30;;;4.80;;
23179;SDS011;11758;45.756;11.432;2022-12-18T01:29:14;7.37;;;5.50;;
23179;SDS011;11758;45.756;11.432;2022-12-18T01:31:40;9.70;;;4.83;;
23179;SDS011;11758;45.756;11.432;2022-12-18T01:34:07;7.13;;;5.30;;
23179;SDS011;11758;45.756;11.432;2022-12-18T01:36:34;6.10;;;5.47;;
23179;SDS011;11758;45.756;11.432;2022-12-18T01:39:02;6.30;;;5.43;;
23179;SDS011;11758;45.756;11.432;2022-12-18T01:41:29;5.97;;;5.43;;
23179;SDS011;11758;45.756;11.432;2022-12-18T01:47:01;6.83;;;5.80;;
23179;SDS011;11758;45.756;11.432;2022-12-18T01:49:27;6.77;;;5.33;;
23179;SDS011;11758;45.756;11.432;2022-12-18T01:51:53;5.70;;;5.20;;
23179;SDS011;11758;45.756;11.432;2022-12-18T01:54:19;6.73;;;5.43;;
23179;SDS011;11758;45.756;11.432;2022-12-18T01:56:45;6.30;;;5.30;;
23179;SDS011;11758;45.756;11.432;2022-12-18T01:59:11;6.40;;;5.57;;
23179;SDS011;11758;45.756;11.432;2022-12-18T02:01:38;8.30;;;5.77;;
23179;SDS011;11758;45.756;11.432;2022-12-18T02:06:46;6.53;;;5.67;;
23179;SDS011;11758;45.756;11.432;2022-12-18T02:09:20;9.00;;;5.83;;
23179;SDS011;11758;45.756;11.432;2022-12-18T02:11:53;5.83;;;5.30;;
23179;SDS011;11758;45.756;11.432;2022-12-18T02:19:43;7.47;;;6.23;;
23179;SDS011;11758;45.756;11.432;2022-12-18T02:22:27;6.53;;;5.80;;
23179;SDS011;11758;45.756;11.432;2022-12-18T02:27:59;7.53;;;4.93;;
23179;SDS011;11758;45.756;11.432;2022-12-18T02:30:28;7.73;;;5.47;;
23179;SDS011;11758;45.756;11.432;2022-12-18T02:32:56;7.30;;;5.30;;
23179;SDS011;11758;45.756;11.432;2022-12-18T02:35:24;6.67;;;5.67;;
23179;SDS011;11758;45.756;11.432;2022-12-18T02:37:51;5.43;;;4.93;;
23179;SDS011;11758;45.756;11.432;2022-12-18T02:40:18;7.03;;;5.40;;
23179;SDS011;11758;45.756;11.432;2022-12-18T02:42:45;6.00;;;5.03;;
23179;SDS011;11758;45.756;11.432;2022-12-18T02:45:11;8.40;;;5.10;;
23179;SDS011;11758;45.756;11.432;2022-12-18T02:47:38;6.20;;;5.23;;
23179;SDS011;11758;45.756;11.432;2022-12-18T02:50:11;5.97;;;5.37;;
23179;SDS011;11758;45.756;11.432;2022-12-18T02:57:54;7.77;;;5.50;;
23179;SDS011;11758;45.756;11.432;2022-12-18T03:03:14;8.57;;;5.73;;
23179;SDS011;11758;45.756;11.432;2022-12-18T03:08:16;8.20;;;4.83;;
23179;SDS011;11758;45.756;11.432;2022-12-18T03:11:06;5.97;;;5.00;;
23179;SDS011;11758;45.756;11.432;2022-12-18T03:16:03;5.93;;;4.73;;
23179;SDS011;11758;45.756;11.432;2022-12-18T03:20:57;5.10;;;4.60;;
23179;SDS011;11758;45.756;11.432;2022-12-18T03:23:26;4.97;;;4.47;;
23179;SDS011;11758;45.756;11.432;2022-12-18T03:25:54;4.83;;;4.40;;
23179;SDS011;11758;45.756;11.432;2022-12-18T03:28:22;4.83;;;4.23;;
23179;SDS011;11758;45.756;11.432;2022-12-18T03:30:55;9.90;;;6.70;;
23179;SDS011;11758;45.756;11.432;2022-12-18T03:33:26;6.47;;;5.17;;
23179;SDS011;11758;45.756;11.432;2022-12-18T03:35:53;5.37;;;4.83;;
23179;SDS011;11758;45.756;11.432;2022-12-18T03:38:19;5.40;;;4.90;;
23179;SDS011;11758;45.756;11.432;2022-12-18T03:46:02;4.53;;;4.20;;
23179;SDS011;11758;45.756;11.432;2022-12-18T03:48:30;4.20;;;3.80;;
23179;SDS011;11758;45.756;11.432;2022-12-18T03:51:07;5.20;;;4.70;;
23179;SDS011;11758;45.756;11.432;2022-12-18T03:53:44;5.10;;;4.60;;
23179;SDS011;11758;45.756;11.432;2022-12-18T03:56:13;4.20;;;3.90;;
23179;SDS011;11758;45.756;11.432;2022-12-18T03:58:40;4.90;;;4.40;;
23179;SDS011;11758;45.756;11.432;2022-12-18T04:01:06;4.87;;;4.47;;
23179;SDS011;11758;45.756;11.432;2022-12-18T04:03:33;5.13;;;4.63;;
23179;SDS011;11758;45.756;11.432;2022-12-18T04:06:00;4.00;;;3.70;;
23179;SDS011;11758;45.756;11.432;2022-12-18T04:08:26;4.70;;;4.30;;
23179;SDS011;11758;45.756;11.432;2022-12-18T04:10:52;4.40;;;4.10;;
23179;SDS011;11758;45.756;11.432;2022-12-18T04:13:22;4.47;;;4.00;;
23179;SDS011;11758;45.756;11.432;2022-12-18T04:15:48;4.10;;;3.73;;
23179;SDS011;11758;45.756;11.432;2022-12-18T04:18:14;4.30;;;3.93;;
23179;SDS011;11758;45.756;11.432;2022-12-18T04:20:40;4.60;;;4.20;;
23179;SDS011;11758;45.756;11.432;2022-12-18T04:23:06;4.90;;;4.43;;
23179;SDS011;11758;45.756;11.432;2022-12-18T04:25:33;5.70;;;4.30;;
23179;SDS011;11758;45.756;11.432;2022-12-18T04:27:59;4.30;;;3.90;;
23179;SDS011;11758;45.756;11.432;2022-12-18T04:30:25;5.43;;;4.67;;
23179;SDS011;11758;45.756;11.432;2022-12-18T04:32:51;9.67;;;6.40;;
23179;SDS011;11758;45.756;11.432;2022-12-18T04:35:17;8.53;;;6.00;;
23179;SDS011;11758;45.756;11.432;2022-12-18T04:37:43;4.70;;;4.30;;
23179;SDS011;11758;45.756;11.432;2022-12-18T04:40:09;4.93;;;4.43;;
23179;SDS011;11758;45.756;11.432;2022-12-18T04:42:35;4.83;;;4.30;;
23179;SDS011;11758;45.756;11.432;2022-12-18T04:45:01;5.30;;;4.03;;
23179;SDS011;11758;45.756;11.432;2022-12-18T04:47:28;6.97;;;5.60;;
23179;SDS011;11758;45.756;11.432;2022-12-18T04:49:54;6.03;;;5.00;;
23179;SDS011;11758;45.756;11.432;2022-12-18T04:52:20;5.87;;;5.27;;
23179;SDS011;11758;45.756;11.432;2022-12-18T04:54:46;5.13;;;4.60;;
23179;SDS011;11758;45.756;11.432;2022-12-18T04:57:12;4.80;;;4.23;;
23179;SDS011;11758;45.756;11.432;2022-12-18T04:59:38;4.80;;;4.13;;
23179;SDS011;11758;45.756;11.432;2022-12-18T05:02:04;3.97;;;3.63;;
23179;SDS011;11758;45.756;11.432;2022-12-18T05:04:31;3.80;;;3.50;;
23179;SDS011;11758;45.756;11.432;2022-12-18T05:06:57;6.07;;;4.50;;
23179;SDS011;11758;45.756;11.432;2022-12-18T05:09:23;4.47;;;3.93;;
23179;SDS011;11758;45.756;11.432;2022-12-18T05:11:49;4.20;;;3.80;;
23179;SDS011;11758;45.756;11.432;2022-12-18T05:14:15;6.63;;;4.40;;
23179;SDS011;11758;45.756;11.432;2022-12-18T05:16:41;3.83;;;3.53;;
23179;SDS011;11758;45.756;11.432;2022-12-18T05:19:07;3.40;;;3.20;;
23179;SDS011;11758;45.756;11.432;2022-12-18T05:21:33;4.03;;;3.67;;
23179;SDS011;11758;45.756;11.432;2022-12-18T05:23:59;3.83;;;3.53;;
23179;SDS011;11758;45.756;11.432;2022-12-18T05:26:25;3.90;;;3.60;;
23179;SDS011;11758;45.756;11.432;2022-12-18T05:28:51;3.50;;;3.30;;
23179;SDS011;11758;45.756;11.432;2022-12-18T05:31:17;3.93;;;3.63;;
23179;SDS011;11758;45.756;11.432;2022-12-18T05:33:44;3.80;;;3.50;;
23179;SDS011;11758;45.756;11.432;2022-12-18T05:36:10;4.20;;;3.70;;
23179;SDS011;11758;45.756;11.432;2022-12-18T05:38:37;3.77;;;3.47;;
23179;SDS011;11758;45.756;11.432;2022-12-18T05:41:03;3.93;;;3.63;;
23179;SDS011;11758;45.756;11.432;2022-12-18T05:43:30;3.70;;;3.50;;
23179;SDS011;11758;45.756;11.432;2022-12-18T05:45:56;4.40;;;4.00;;
23179;SDS011;11758;45.756;11.432;2022-12-18T05:48:22;4.20;;;3.80;;
23179;SDS011;11758;45.756;11.432;2022-12-18T05:50:49;4.53;;;4.07;;
23179;SDS011;11758;45.756;11.432;2022-12-18T05:53:16;4.50;;;4.10;;
23179;SDS011;11758;45.756;11.432;2022-12-18T05:55:44;3.93;;;3.60;;
23179;SDS011;11758;45.756;11.432;2022-12-18T05:58:10;4.27;;;3.87;;
23179;SDS011;11758;45.756;11.432;2022-12-18T06:00:37;6.70;;;4.20;;
23179;SDS011;11758;45.756;11.432;2022-12-18T06:03:07;4.40;;;4.00;;
23179;SDS011;11758;45.756;11.432;2022-12-18T06:05:37;4.27;;;3.90;;
23179;SDS011;11758;45.756;11.432;2022-12-18T06:08:03;4.17;;;3.77;;
23179;SDS011;11758;45.756;11.432;2022-12-18T06:10:29;4.33;;;3.67;;
23179;SDS011;11758;45.756;11.432;2022-12-18T06:12:55;6.67;;;4.20;;
23179;SDS011;11758;45.756;11.432;2022-12-18T06:15:22;5.00;;;4.37;;
23179;SDS011;11758;45.756;11.432;2022-12-18T06:17:48;3.90;;;3.60;;
23179;SDS011;11758;45.756;11.432;2022-12-18T06:20:14;5.33;;;4.07;;
23179;SDS011;11758;45.756;11.432;2022-12-18T06:22:40;4.23;;;3.83;;
23179;SDS011;11758;45.756;11.432;2022-12-18T06:25:06;4.40;;;4.00;;
23179;SDS011;11758;45.756;11.432;2022-12-18T06:27:32;4.00;;;3.60;;
23179;SDS011;11758;45.756;11.432;2022-12-18T06:29:59;5.30;;;3.87;;
23179;SDS011;11758;45.756;11.432;2022-12-18T06:32:25;4.20;;;3.80;;
23179;SDS011;11758;45.756;11.432;2022-12-18T06:34:51;3.80;;;3.40;;
23179;SDS011;11758;45.756;11.432;2022-12-18T06:37:18;4.90;;;4.40;;
23179;SDS011;11758;45.756;11.432;2022-12-18T06:39:44;3.77;;;3.30;;
23179;SDS011;11758;45.756;11.432;2022-12-18T06:42:10;4.20;;;3.80;;
23179;SDS011;11758;45.756;11.432;2022-12-18T06:44:37;6.27;;;5.53;;
23179;SDS011;11758;45.756;11.432;2022-12-18T06:47:03;8.87;;;5.30;;
23179;SDS011;11758;45.756;11.432;2022-12-18T06:49:29;5.00;;;4.50;;
23179;SDS011;11758;45.756;11.432;2022-12-18T06:51:55;4.33;;;3.80;;
23179;SDS011;11758;45.756;11.432;2022-12-18T06:54:21;5.03;;;4.40;;
23179;SDS011;11758;45.756;11.432;2022-12-18T06:56:47;7.97;;;5.53;;
23179;SDS011;11758;45.756;11.432;2022-12-18T06:59:13;13.73;;;7.70;;
23179;SDS011;11758;45.756;11.432;2022-12-18T07:01:40;16.97;;;10.30;;
23179;SDS011;11758;45.756;11.432;2022-12-18T07:04:06;19.90;;;9.10;;
23179;SDS011;11758;45.756;11.432;2022-12-18T07:06:32;10.50;;;7.07;;
23179;SDS011;11758;45.756;11.432;2022-12-18T07:08:58;8.33;;;5.50;;
23179;SDS011;11758;45.756;11.432;2022-12-18T07:11:24;7.83;;;5.87;;
23179;SDS011;11758;45.756;11.432;2022-12-18T07:13:51;25.33;;;15.33;;
23179;SDS011;11758;45.756;11.432;2022-12-18T07:16:19;21.53;;;11.83;;
23179;SDS011;11758;45.756;11.432;2022-12-18T07:18:45;26.87;;;11.43;;
23179;SDS011;11758;45.756;11.432;2022-12-18T07:21:15;15.73;;;8.60;;
23179;SDS011;11758;45.756;11.432;2022-12-18T07:23:42;9.57;;;6.70;;
23179;SDS011;11758;45.756;11.432;2022-12-18T07:26:10;23.87;;;11.47;;
23179;SDS011;11758;45.756;11.432;2022-12-18T07:28:37;16.90;;;9.57;;
23179;SDS011;11758;45.756;11.432;2022-12-18T07:31:04;17.63;;;10.60;;
23179;SDS011;11758;45.756;11.432;2022-12-18T07:33:31;23.83;;;12.50;;
23179;SDS011;11758;45.756;11.432;2022-12-18T07:35:58;12.43;;;7.87;;
23179;SDS011;11758;45.756;11.432;2022-12-18T07:38:24;16.73;;;10.63;;
23179;SDS011;11758;45.756;11.432;2022-12-18T07:40:50;17.77;;;12.03;;
23179;SDS011;11758;45.756;11.432;2022-12-18T07:43:16;17.13;;;9.03;;
23179;SDS011;11758;45.756;11.432;2022-12-18T07:45:43;14.07;;;8.30;;
23179;SDS011;11758;45.756;11.432;2022-12-18T07:48:09;18.23;;;8.97;;
23179;SDS011;11758;45.756;11.432;2022-12-18T07:50:36;21.70;;;11.27;;
23179;SDS011;11758;45.756;11.432;2022-12-18T07:53:02;43.27;;;17.57;;
23179;SDS011;11758;45.756;11.432;2022-12-18T07:55:30;57.83;;;20.90;;
23179;SDS011;11758;45.756;11.432;2022-12-18T07:57:56;24.50;;;10.33;;
23179;SDS011;11758;45.756;11.432;2022-12-18T08:00:22;12.50;;;6.97;;
23179;SDS011;11758;45.756;11.432;2022-12-18T08:02:48;11.00;;;5.50;;
23179;SDS011;11758;45.756;11.432;2022-12-18T08:05:17;11.80;;;4.90;;
23179;SDS011;11758;45.756;11.432;2022-12-18T08:07:52;6.30;;;4.80;;
23179;SDS011;11758;45.756;11.432;2022-12-18T08:10:21;14.07;;;5.20;;
23179;SDS011;11758;45.756;11.432;2022-12-18T08:12:49;6.70;;;4.50;;
23179;SDS011;11758;45.756;11.432;2022-12-18T08:15:15;6.63;;;5.03;;
23179;SDS011;11758;45.756;11.432;2022-12-18T08:17:41;10.90;;;6.50;;
23179;SDS011;11758;45.756;11.432;2022-12-18T08:20:08;10.90;;;6.47;;
23179;SDS011;11758;45.756;11.432;2022-12-18T08:22:34;12.73;;;6.93;;
23179;SDS011;11758;45.756;11.432;2022-12-18T08:25:01;13.67;;;6.97;;
23179;SDS011;11758;45.756;11.432;2022-12-18T08:27:27;8.63;;;5.90;;
23179;SDS011;11758;45.756;11.432;2022-12-18T08:29:53;7.43;;;5.10;;
23179;SDS011;11758;45.756;11.432;2022-12-18T08:32:20;6.07;;;5.00;;
23179;SDS011;11758;45.756;11.432;2022-12-18T08:34:47;7.03;;;4.90;;
23179;SDS011;11758;45.756;11.432;2022-12-18T08:37:14;9.70;;;6.20;;
23179;SDS011;11758;45.756;11.432;2022-12-18T08:39:41;7.20;;;5.20;;
23179;SDS011;11758;45.756;11.432;2022-12-18T08:42:07;6.60;;;5.07;;
23179;SDS011;11758;45.756;11.432;2022-12-18T08:44:51;7.93;;;5.60;;
23179;SDS011;11758;45.756;11.432;2022-12-18T08:47:17;7.43;;;5.50;;
23179;SDS011;11758;45.756;11.432;2022-12-18T08:49:43;6.03;;;5.07;;
23179;SDS011;11758;45.756;11.432;2022-12-18T08:52:09;7.43;;;5.27;;
23179;SDS011;11758;45.756;11.432;2022-12-18T08:54:36;6.53;;;5.13;;
23179;SDS011;11758;45.756;11.432;2022-12-18T08:57:02;6.93;;;5.40;;
23179;SDS011;11758;45.756;11.432;2022-12-18T08:59:28;17.43;;;7.47;;
23179;SDS011;11758;45.756;11.432;2022-12-18T09:01:54;20.13;;;6.97;;
23179;SDS011;11758;45.756;11.432;2022-12-18T09:04:20;9.00;;;5.47;;
23179;SDS011;11758;45.756;11.432;2022-12-18T09:06:46;6.27;;;4.77;;
23179;SDS011;11758;45.756;11.432;2022-12-18T09:09:12;5.73;;;4.87;;
23179;SDS011;11758;45.756;11.432;2022-12-18T09:11:39;12.57;;;5.87;;
23179;SDS011;11758;45.756;11.432;2022-12-18T09:14:05;7.93;;;5.87;;
23179;SDS011;11758;45.756;11.432;2022-12-18T09:16:31;8.00;;;5.83;;
23179;SDS011;11758;45.756;11.432;2022-12-18T09:19:00;13.90;;;8.57;;
23179;SDS011;11758;45.756;11.432;2022-12-18T09:21:27;12.33;;;8.43;;
23179;SDS011;11758;45.756;11.432;2022-12-18T09:23:54;10.37;;;7.27;;
23179;SDS011;11758;45.756;11.432;2022-12-18T09:26:21;9.30;;;6.67;;
23179;SDS011;11758;45.756;11.432;2022-12-18T09:28:47;8.60;;;6.57;;
23179;SDS011;11758;45.756;11.432;2022-12-18T09:31:14;10.40;;;6.63;;
23179;SDS011;11758;45.756;11.432;2022-12-18T09:33:40;8.97;;;6.43;;
23179;SDS011;11758;45.756;11.432;2022-12-18T09:36:07;10.97;;;7.10;;
23179;SDS011;11758;45.756;11.432;2022-12-18T09:38:34;8.97;;;7.27;;
23179;SDS011;11758;45.756;11.432;2022-12-18T09:43:43;9.90;;;7.23;;
23179;SDS011;11758;45.756;11.432;2022-12-18T09:46:15;11.07;;;8.10;;
23179;SDS011;11758;45.756;11.432;2022-12-18T09:48:42;12.23;;;8.40;;
23179;SDS011;11758;45.756;11.432;2022-12-18T09:51:15;13.90;;;8.57;;
23179;SDS011;11758;45.756;11.432;2022-12-18T09:53:44;10.10;;;7.73;;
23179;SDS011;11758;45.756;11.432;2022-12-18T09:56:13;11.10;;;8.00;;
23179;SDS011;11758;45.756;11.432;2022-12-18T09:58:42;10.77;;;8.00;;
23179;SDS011;11758;45.756;11.432;2022-12-18T10:01:14;11.07;;;8.37;;
23179;SDS011;11758;45.756;11.432;2022-12-18T10:03:41;10.00;;;7.47;;
23179;SDS011;11758;45.756;11.432;2022-12-18T10:08:54;15.17;;;8.10;;
23179;SDS011;11758;45.756;11.432;2022-12-18T10:14:13;12.40;;;8.90;;
23179;SDS011;11758;45.756;11.432;2022-12-18T10:24:33;11.53;;;8.40;;
23179;SDS011;11758;45.756;11.432;2022-12-18T10:27:13;12.83;;;7.50;;
23179;SDS011;11758;45.756;11.432;2022-12-18T10:29:41;9.63;;;6.93;;
23179;SDS011;11758;45.756;11.432;2022-12-18T10:32:08;9.60;;;7.37;;
23179;SDS011;11758;45.756;11.432;2022-12-18T10:34:38;10.10;;;7.43;;
23179;SDS011;11758;45.756;11.432;2022-12-18T10:37:06;8.25;;;7.40;;
23179;SDS011;11758;45.756;11.432;2022-12-18T10:39:32;8.53;;;7.10;;
23179;SDS011;11758;45.756;11.432;2022-12-18T10:42:09;8.93;;;7.23;;
23179;SDS011;11758;45.756;11.432;2022-12-18T10:44:35;11.98;;;7.35;;
23179;SDS011;11758;45.756;11.432;2022-12-18T10:47:02;9.82;;;7.10;;
23179;SDS011;11758;45.756;11.432;2022-12-18T10:49:30;9.65;;;7.88;;
23179;SDS011;11758;45.756;11.432;2022-12-18T10:55:03;14.20;;;8.52;;
23179;SDS011;11758;45.756;11.432;2022-12-18T10:57:35;10.07;;;7.77;;
23179;SDS011;11758;45.756;11.432;2022-12-18T11:02:46;9.70;;;7.50;;
23179;SDS011;11758;45.756;11.432;2022-12-18T11:05:32;9.70;;;7.53;;
23179;SDS011;11758;45.756;11.432;2022-12-18T11:07:59;7.78;;;6.15;;
23179;SDS011;11758;45.756;11.432;2022-12-18T11:10:28;7.95;;;6.22;;
23179;SDS011;11758;45.756;11.432;2022-12-18T11:12:54;6.95;;;6.13;;
23179;SDS011;11758;45.756;11.432;2022-12-18T11:15:22;10.68;;;7.68;;
23179;SDS011;11758;45.756;11.432;2022-12-18T11:17:50;10.25;;;8.10;;
23179;SDS011;11758;45.756;11.432;2022-12-18T11:22:56;17.15;;;11.15;;
23179;SDS011;11758;45.756;11.432;2022-12-18T11:25:23;7.72;;;6.18;;
23179;SDS011;11758;45.756;11.432;2022-12-18T11:27:54;8.70;;;6.43;;
23179;SDS011;11758;45.756;11.432;2022-12-18T11:30:34;7.18;;;6.22;;
23179;SDS011;11758;45.756;11.432;2022-12-18T11:33:03;11.05;;;7.25;;
23179;SDS011;11758;45.756;11.432;2022-12-18T11:40:38;10.05;;;8.48;;
23179;SDS011;11758;45.756;11.432;2022-12-18T11:43:16;8.27;;;6.63;;
23179;SDS011;11758;45.756;11.432;2022-12-18T11:45:55;8.32;;;6.90;;
23179;SDS011;11758;45.756;11.432;2022-12-18T11:48:30;8.68;;;6.93;;
23179;SDS011;11758;45.756;11.432;2022-12-18T11:50:58;12.88;;;8.07;;
23179;SDS011;11758;45.756;11.432;2022-12-18T11:53:26;9.00;;;7.07;;
23179;SDS011;11758;45.756;11.432;2022-12-18T12:01:19;8.77;;;7.03;;
23179;SDS011;11758;45.756;11.432;2022-12-18T12:21:21;11.13;;;8.63;;
23179;SDS011;11758;45.756;11.432;2022-12-18T12:31:36;13.07;;;8.43;;
23179;SDS011;11758;45.756;11.432;2022-12-18T12:39:14;13.93;;;9.82;;
23179;SDS011;11758;45.756;11.432;2022-12-18T12:41:43;16.15;;;9.77;;
23179;SDS011;11758;45.756;11.432;2022-12-18T12:44:30;9.68;;;8.02;;
23179;SDS011;11758;45.756;11.432;2022-12-18T12:46:59;13.00;;;9.18;;
23179;SDS011;11758;45.756;11.432;2022-12-18T12:49:29;9.43;;;8.02;;
23179;SDS011;11758;45.756;11.432;2022-12-18T12:52:12;10.52;;;8.07;;
23179;SDS011;11758;45.756;11.432;2022-12-18T12:54:39;10.82;;;7.97;;
23179;SDS011;11758;45.756;11.432;2022-12-18T13:04:46;14.40;;;9.15;;
23179;SDS011;11758;45.756;11.432;2022-12-18T13:07:32;14.25;;;9.50;;
23179;SDS011;11758;45.756;11.432;2022-12-18T13:10:11;10.20;;;8.45;;
23179;SDS011;11758;45.756;11.432;2022-12-18T13:12:51;11.35;;;9.00;;
23179;SDS011;11758;45.756;11.432;2022-12-18T13:20:37;13.18;;;9.70;;
23179;SDS011;11758;45.756;11.432;2022-12-18T13:23:25;12.02;;;8.63;;
23179;SDS011;11758;45.756;11.432;2022-12-18T13:25:53;12.10;;;8.73;;
23179;SDS011;11758;45.756;11.432;2022-12-18T13:31:04;11.38;;;8.75;;
23179;SDS011;11758;45.756;11.432;2022-12-18T13:33:41;11.75;;;9.52;;
23179;SDS011;11758;45.756;11.432;2022-12-18T13:36:15;11.32;;;8.88;;
23179;SDS011;11758;45.756;11.432;2022-12-18T13:38:42;12.13;;;8.65;;
23179;SDS011;11758;45.756;11.432;2022-12-18T13:43:57;17.42;;;10.85;;
23179;SDS011;11758;45.756;11.432;2022-12-18T13:46:42;17.70;;;8.77;;
23179;SDS011;11758;45.756;11.432;2022-12-18T13:51:42;10.73;;;8.38;;
23179;SDS011;11758;45.756;11.432;2022-12-18T13:56:42;13.48;;;9.30;;
23179;SDS011;11758;45.756;11.432;2022-12-18T13:59:16;15.43;;;9.20;;
23179;SDS011;11758;45.756;11.432;2022-12-18T14:02:05;10.73;;;8.80;;
23179;SDS011;11758;45.756;11.432;2022-12-18T14:04:30;15.30;;;10.68;;
23179;SDS011;11758;45.756;11.432;2022-12-18T14:06:58;21.83;;;13.30;;
23179;SDS011;11758;45.756;11.432;2022-12-18T14:09:25;16.77;;;11.52;;
23179;SDS011;11758;45.756;11.432;2022-12-18T14:11:52;13.20;;;9.68;;
23179;SDS011;11758;45.756;11.432;2022-12-18T14:14:40;13.73;;;10.18;;
23179;SDS011;11758;45.756;11.432;2022-12-18T14:17:10;16.70;;;10.63;;
23179;SDS011;11758;45.756;11.432;2022-12-18T14:19:37;14.65;;;10.43;;
23179;SDS011;11758;45.756;11.432;2022-12-18T14:22:12;15.00;;;9.75;;
23179;SDS011;11758;45.756;11.432;2022-12-18T14:24:43;13.48;;;8.95;;
23179;SDS011;11758;45.756;11.432;2022-12-18T14:27:27;15.25;;;8.63;;
23179;SDS011;11758;45.756;11.432;2022-12-18T14:29:53;17.75;;;9.38;;
23179;SDS011;11758;45.756;11.432;2022-12-18T14:32:20;14.68;;;8.90;;
23179;SDS011;11758;45.756;11.432;2022-12-18T14:34:47;10.88;;;8.35;;
23179;SDS011;11758;45.756;11.432;2022-12-18T14:37:14;11.50;;;8.65;;
23179;SDS011;11758;45.756;11.432;2022-12-18T14:39:40;16.15;;;8.40;;
23179;SDS011;11758;45.756;11.432;2022-12-18T14:42:17;10.85;;;8.30;;
23179;SDS011;11758;45.756;11.432;2022-12-18T14:44:43;10.57;;;8.32;;
23179;SDS011;11758;45.756;11.432;2022-12-18T14:47:13;15.40;;;9.50;;
23179;SDS011;11758;45.756;11.432;2022-12-18T14:49:39;13.50;;;8.90;;
23179;SDS011;11758;45.756;11.432;2022-12-18T14:52:16;9.13;;;7.85;;
23179;SDS011;11758;45.756;11.432;2022-12-18T14:54:45;18.98;;;9.13;;
23179;SDS011;11758;45.756;11.432;2022-12-18T14:57:21;16.42;;;8.90;;
23179;SDS011;11758;45.756;11.432;2022-12-18T14:59:48;12.32;;;8.55;;
23179;SDS011;11758;45.756;11.432;2022-12-18T15:02:21;12.32;;;8.95;;
23179;SDS011;11758;45.756;11.432;2022-12-18T15:04:59;14.48;;;9.15;;
23179;SDS011;11758;45.756;11.432;2022-12-18T15:07:26;14.70;;;10.07;;
23179;SDS011;11758;45.756;11.432;2022-12-18T15:12:32;17.67;;;9.48;;
23179;SDS011;11758;45.756;11.432;2022-12-18T15:15:02;12.98;;;9.60;;
23179;SDS011;11758;45.756;11.432;2022-12-18T15:17:28;18.27;;;9.85;;
23179;SDS011;11758;45.756;11.432;2022-12-18T15:19:59;13.85;;;9.55;;
23179;SDS011;11758;45.756;11.432;2022-12-18T15:22:27;13.95;;;10.43;;
23179;SDS011;11758;45.756;11.432;2022-12-18T15:24:54;13.85;;;9.93;;
23179;SDS011;11758;45.756;11.432;2022-12-18T15:29:59;15.30;;;9.95;;
23179;SDS011;11758;45.756;11.432;2022-12-18T15:32:25;14.10;;;9.68;;
23179;SDS011;11758;45.756;11.432;2022-12-18T15:35:01;13.45;;;10.52;;
23179;SDS011;11758;45.756;11.432;2022-12-18T15:37:32;15.20;;;10.90;;
23179;SDS011;11758;45.756;11.432;2022-12-18T15:39:58;12.75;;;9.63;;
23179;SDS011;11758;45.756;11.432;2022-12-18T15:42:24;13.80;;;10.52;;
23179;SDS011;11758;45.756;11.432;2022-12-18T15:45:13;21.55;;;12.98;;
23179;SDS011;11758;45.756;11.432;2022-12-18T15:47:39;19.02;;;12.82;;
23179;SDS011;11758;45.756;11.432;2022-12-18T15:50:06;18.25;;;12.18;;
23179;SDS011;11758;45.756;11.432;2022-12-18T15:52:35;16.58;;;11.98;;
23179;SDS011;11758;45.756;11.432;2022-12-18T15:55:04;18.17;;;12.68;;
23179;SDS011;11758;45.756;11.432;2022-12-18T15:57:50;29.58;;;15.93;;
23179;SDS011;11758;45.756;11.432;2022-12-18T16:00:20;27.15;;;16.88;;
23179;SDS011;11758;45.756;11.432;2022-12-18T16:02:46;27.42;;;17.63;;
23179;SDS011;11758;45.756;11.432;2022-12-18T16:05:16;22.45;;;14.82;;
23179;SDS011;11758;45.756;11.432;2022-12-18T16:07:43;19.92;;;13.15;;
23179;SDS011;11758;45.756;11.432;2022-12-18T16:10:09;41.97;;;22.55;;
23179;SDS011;11758;45.756;11.432;2022-12-18T16:12:35;18.92;;;12.57;;
23179;SDS011;11758;45.756;11.432;2022-12-18T16:15:02;17.30;;;12.05;;
23179;SDS011;11758;45.756;11.432;2022-12-18T16:17:28;18.38;;;11.50;;
23179;SDS011;11758;45.756;11.432;2022-12-18T16:19:54;16.00;;;11.35;;
23179;SDS011;11758;45.756;11.432;2022-12-18T16:22:24;16.02;;;10.93;;
23179;SDS011;11758;45.756;11.432;2022-12-18T16:24:52;17.37;;;11.37;;
23179;SDS011;11758;45.756;11.432;2022-12-18T16:27:19;14.67;;;10.50;;
23179;SDS011;11758;45.756;11.432;2022-12-18T16:29:45;19.23;;;10.60;;
23179;SDS011;11758;45.756;11.432;2022-12-18T16:32:13;14.87;;;10.37;;
23179;SDS011;11758;45.756;11.432;2022-12-18T16:34:39;17.17;;;11.17;;
23179;SDS011;11758;45.756;11.432;2022-12-18T16:37:07;18.05;;;11.05;;
23179;SDS011;11758;45.756;11.432;2022-12-18T16:39:33;18.00;;;11.57;;
23179;SDS011;11758;45.756;11.432;2022-12-18T16:42:00;22.17;;;13.07;;